Time;durP1;ratioP1;P1;durP2;ratioP2;P2;SDS_P1;SDS_P2;PMS_P1;PMS_P2;Temp;Humidity;BMP_temperature;BMP_pressure;BME280_temperature;BME280_humidity;BME280_pressure;Samples;Min_cycle;Max_cycle;Signal;HPM_P1;HPM_P2
2023/04/21 00:00:33;;;;;;;16.55;11.32;;;;;;;;;;2056163;28;20034;-94
2023/04/21 00:01:33;;;;;;;14.70;11.18;;;;;;;;;;2047932;29;20115;-91
2023/04/21 00:02:38;;;;;;;15.40;10.57;;;;;;;;;;2047769;29;20029;-91
2023/04/21 00:03:40;;;;;;;14.63;10.75;;;;;;;;;;2048259;28;20027;-93
2023/04/21 00:04:44;;;;;;;16.50;10.63;;;;;;;;;;2049079;28;20034;-93
2023/04/21 00:05:45;;;;;;;14.93;10.40;;;;;;;;;;2048369;28;20193;-92
2023/04/21 00:06:45;;;;;;;15.63;9.70;;;;;;;;;;2048142;28;20033;-93
2023/04/21 00:07:46;;;;;;;13.73;10.05;;;;;;;;;;2048682;29;20057;-93
2023/04/21 00:08:47;;;;;;;15.40;11.38;;;;;;;;;;2048270;29;20031;-92
2023/04/21 00:09:47;;;;;;;14.50;10.50;;;;;;;;;;2048051;28;20469;-92
2023/04/21 00:10:48;;;;;;;14.70;10.50;;;;;;;;;;2055908;28;20106;-92
2023/04/21 00:11:49;;;;;;;16.63;11.23;;;;;;;;;;2055922;28;20081;-92
2023/04/21 00:12:49;;;;;;;13.13;10.32;;;;;;;;;;2055958;28;20043;-92
2023/04/21 00:13:50;;;;;;;14.15;10.65;;;;;;;;;;1712784;28;10001186;-92
2023/04/21 00:14:50;;;;;;;16.02;11.02;;;;;;;;;;2056452;28;20132;-92
2023/04/21 00:15:50;;;;;;;;;;;;;;;;;;2056565;28;20122;-93
2023/04/21 00:16:52;;;;;;;13.40;9.47;;;;;;;;;;2055882;28;20401;-92
2023/04/21 00:17:52;;;;;;;13.88;10.02;;;;;;;;;;2056297;28;20026;-93
2023/04/21 00:19:05;;;;;;;16.25;9.23;;;;;;;;;;2057966;28;20473;-93
2023/04/21 00:20:09;;;;;;;14.32;10.15;;;;;;;;;;2061982;28;20038;-92
2023/04/21 00:21:09;;;;;;;19.15;10.68;;;;;;;;;;2056018;28;20109;-92
2023/04/21 00:22:13;;;;;;;14.68;10.07;;;;;;;;;;2055761;28;20023;-94
2023/04/21 00:23:14;;;;;;;13.55;10.18;;;;;;;;;;2056043;28;20117;-93
2023/04/21 00:24:14;;;;;;;16.05;11.07;;;;;;;;;;2064205;28;20022;-92
2023/04/21 00:25:14;;;;;;;;;;;;;;;;;;2056515;28;20077;-93
2023/04/21 00:26:15;;;;;;;12.93;8.83;;;;;;;;;;2055901;28;20365;-93
2023/04/21 00:27:16;;;;;;;12.85;10.27;;;;;;;;;;2055541;28;20510;-93
2023/04/21 00:28:16;;;;;;;;;;;;;;;;;;2034489;28;20150;-93
2023/04/21 00:29:17;;;;;;;14.80;9.47;;;;;;;;;;2046933;29;20400;-93
2023/04/21 00:30:18;;;;;;;;;;;;;;;;;;2044050;29;20438;-94
2023/04/21 00:31:19;;;;;;;15.35;10.40;;;;;;;;;;2035180;28;19955;-94
2023/04/21 00:32:19;;;;;;;12.43;10.55;;;;;;;;;;2056124;28;20507;-94
2023/04/21 00:33:21;;;;;;;14.35;10.30;;;;;;;;;;2056124;28;20434;-93
2023/04/21 00:34:21;;;;;;;16.05;10.90;;;;;;;;;;2054675;28;20014;-90
2023/04/21 00:35:22;;;;;;;13.93;9.82;;;;;;;;;;2055480;28;20069;-90
2023/04/21 00:36:23;;;;;;;13.45;10.25;;;;;;;;;;2054060;28;20392;-88
2023/04/21 00:37:24;;;;;;;14.82;10.85;;;;;;;;;;2053735;28;20466;-89
2023/04/21 00:38:24;;;;;;;15.48;10.52;;;;;;;;;;2054860;28;20038;-90
2023/04/21 00:39:25;;;;;;;;;;;;;;;;;;2054746;28;20042;-89
2023/04/21 00:40:26;;;;;;;13.33;9.80;;;;;;;;;;2054256;28;19959;-90
2023/04/21 00:41:27;;;;;;;15.38;10.40;;;;;;;;;;2054572;28;20106;-90
2023/04/21 00:42:28;;;;;;;11.73;9.70;;;;;;;;;;2053893;28;20026;-90
2023/04/21 00:43:28;;;;;;;14.82;10.50;;;;;;;;;;2055954;28;20031;-91
2023/04/21 00:44:28;;;;;;;;;;;;;;;;;;2061268;28;20557;-90
2023/04/21 00:45:29;;;;;;;14.80;9.67;;;;;;;;;;2062583;28;19906;-90
2023/04/21 00:46:29;;;;;;;;;;;;;;;;;;2055453;28;20022;-89
2023/04/21 00:47:30;;;;;;;13.73;9.67;;;;;;;;;;2054726;28;19965;-90
2023/04/21 00:48:30;;;;;;;;;;;;;;;;;;2055682;28;20483;-90
2023/04/21 00:49:32;;;;;;;14.03;9.83;;;;;;;;;;2055108;28;20633;-90
2023/04/21 00:50:33;;;;;;;13.93;9.60;;;;;;;;;;2054828;28;20041;-90
2023/04/21 00:51:35;;;;;;;13.75;9.82;;;;;;;;;;2054696;28;20442;-90
2023/04/21 00:52:37;;;;;;;14.95;9.90;;;;;;;;;;2054907;28;20079;-90
2023/04/21 00:53:39;;;;;;;13.77;9.75;;;;;;;;;;2054801;28;20134;-90
2023/04/21 00:54:39;;;;;;;14.98;10.55;;;;;;;;;;2054065;28;20026;-90
2023/04/21 00:55:40;;;;;;;14.15;9.60;;;;;;;;;;2046284;29;20020;-91
2023/04/21 00:56:40;;;;;;;12.30;9.52;;;;;;;;;;2054251;28;20027;-90
2023/04/21 00:57:41;;;;;;;13.63;9.02;;;;;;;;;;2054999;28;20033;-89
2023/04/21 00:58:41;;;;;;;;;;;;;;;;;;2055242;28;20045;-89
2023/04/21 00:59:42;;;;;;;14.03;9.23;;;;;;;;;;2054485;28;19910;-89
2023/04/21 01:00:43;;;;;;;12.20;9.82;;;;;;;;;;2054884;28;20042;-89
2023/04/21 01:01:43;;;;;;;13.77;10.02;;;;;;;;;;2054958;28;20031;-90
2023/04/21 01:02:45;;;;;;;13.30;9.93;;;;;;;;;;2054852;28;20034;-90
2023/04/21 01:03:46;;;;;;;12.07;9.43;;;;;;;;;;2054613;28;20400;-89
2023/04/21 01:04:46;;;;;;;13.57;9.57;;;;;;;;;;2054727;28;20042;-90
2023/04/21 01:05:47;;;;;;;13.38;10.10;;;;;;;;;;2054618;28;20031;-90
2023/04/21 01:06:49;;;;;;;13.98;10.40;;;;;;;;;;2054930;28;20030;-90
2023/04/21 01:07:50;;;;;;;15.70;10.30;;;;;;;;;;2054599;28;20542;-89
2023/04/21 01:08:52;;;;;;;14.27;9.23;;;;;;;;;;2054664;28;20027;-89
2023/04/21 01:09:52;;;;;;;12.70;9.38;;;;;;;;;;2055265;28;20035;-89
2023/04/21 01:10:52;;;;;;;12.55;9.38;;;;;;;;;;2054049;28;20054;-89
2023/04/21 01:12:07;;;;;;;13.10;9.70;;;;;;;;;;2053676;28;20022;-89
2023/04/21 01:13:08;;;;;;;16.23;10.25;;;;;;;;;;2052051;28;20051;-89
2023/04/21 01:14:08;;;;;;;12.65;9.90;;;;;;;;;;2053625;28;20089;-90
2023/04/21 01:15:10;;;;;;;15.18;9.70;;;;;;;;;;2045758;29;20574;-88
2023/04/21 01:16:16;;;;;;;13.68;9.55;;;;;;;;;;2046006;28;20047;-89
2023/04/21 01:17:18;;;;;;;12.93;9.25;;;;;;;;;;1696129;28;10264643;-89
2023/04/21 01:18:20;;;;;;;13.13;9.98;;;;;;;;;;2053756;28;20517;-89
2023/04/21 01:19:21;;;;;;;14.43;10.05;;;;;;;;;;2055429;28;20101;-89
2023/04/21 01:20:22;;;;;;;13.75;9.77;;;;;;;;;;2062719;28;20007;-90
2023/04/21 01:21:22;;;;;;;;;;;;;;;;;;2065062;28;20011;-89
2023/04/21 01:22:23;;;;;;;11.97;8.63;;;;;;;;;;2064557;28;19917;-89
2023/04/21 01:23:24;;;;;;;13.98;9.20;;;;;;;;;;2065136;28;20022;-89
2023/04/21 01:24:35;;;;;;;13.38;9.43;;;;;;;;;;2064809;28;20015;-88
2023/04/21 01:25:35;;;;;;;13.35;9.60;;;;;;;;;;2064052;28;20027;-88
2023/04/21 01:26:36;;;;;;;12.45;8.93;;;;;;;;;;2064163;28;20044;-89
2023/04/21 01:27:36;;;;;;;14.13;10.23;;;;;;;;;;2056877;28;20085;-89
2023/04/21 01:28:37;;;;;;;12.63;9.52;;;;;;;;;;2055375;28;20034;-88
2023/04/21 01:29:39;;;;;;;14.35;10.27;;;;;;;;;;2055146;28;20029;-88
2023/04/21 01:30:39;;;;;;;13.55;9.82;;;;;;;;;;2054065;28;20031;-88
2023/04/21 01:31:40;;;;;;;12.65;9.07;;;;;;;;;;2053810;28;20459;-90
2023/04/21 01:32:42;;;;;;;14.48;9.65;;;;;;;;;;2054143;28;20309;-88
2023/04/21 01:33:44;;;;;;;12.93;9.80;;;;;;;;;;2054064;28;20058;-88
2023/04/21 01:34:45;;;;;;;14.63;10.20;;;;;;;;;;2054200;28;20595;-88
2023/04/21 01:35:45;;;;;;;13.13;9.75;;;;;;;;;;2054145;28;20019;-88
2023/04/21 01:36:46;;;;;;;12.75;9.32;;;;;;;;;;2056440;28;20201;-90
2023/04/21 01:37:46;;;;;;;;;;;;;;;;;;2063636;28;20035;-89
2023/04/21 01:38:46;;;;;;;14.17;9.67;;;;;;;;;;2055903;28;19914;-89
2023/04/21 01:39:51;;;;;;;;;;;;;;;;;;2058207;28;20034;-89
2023/04/21 01:40:53;;;;;;;14.30;9.18;;;;;;;;;;2064409;28;20033;-89
2023/04/21 01:41:56;;;;;;;13.15;9.48;;;;;;;;;;2065021;28;20019;-88
2023/04/21 01:42:57;;;;;;;13.00;9.38;;;;;;;;;;2063791;28;20015;-89
2023/04/21 01:43:57;;;;;;;14.18;9.65;;;;;;;;;;2064351;28;20122;-88
2023/04/21 01:44:58;;;;;;;;;;;;;;;;;;2061250;28;20080;-89
2023/04/21 01:45:59;;;;;;;14.23;9.10;;;;;;;;;;2055363;28;19909;-89
2023/04/21 01:46:59;;;;;;;14.55;9.40;;;;;;;;;;2054135;28;20346;-89
2023/04/21 01:48:00;;;;;;;16.88;10.23;;;;;;;;;;2053844;28;20027;-88
2023/04/21 01:49:00;;;;;;;14.73;9.18;;;;;;;;;;2054196;28;20034;-88
2023/04/21 01:50:00;;;;;;;13.45;10.50;;;;;;;;;;2054115;28;20026;-89
2023/04/21 01:51:01;;;;;;;14.65;10.40;;;;;;;;;;2054799;28;20035;-88
2023/04/21 01:52:01;;;;;;;13.93;9.60;;;;;;;;;;2055541;28;20113;-90
2023/04/21 01:53:02;;;;;;;12.30;9.55;;;;;;;;;;2054612;28;20054;-88
2023/04/21 01:54:02;;;;;;;13.00;10.05;;;;;;;;;;2056379;28;20065;-89
2023/04/21 01:55:03;;;;;;;12.10;9.65;;;;;;;;;;2063765;28;20022;-89
2023/04/21 01:56:04;;;;;;;16.02;10.43;;;;;;;;;;2055561;28;20061;-89
2023/04/21 01:57:05;;;;;;;;;;;;;;;;;;2047988;29;20039;-89
2023/04/21 01:58:06;;;;;;;12.63;8.88;;;;;;;;;;2047633;28;20105;-88
2023/04/21 01:59:06;;;;;;;13.68;9.85;;;;;;;;;;2047741;29;20114;-89
2023/04/21 02:00:08;;;;;;;13.93;10.32;;;;;;;;;;2047813;29;20030;-89
2023/04/21 02:01:09;;;;;;;16.52;10.85;;;;;;;;;;2047610;28;20023;-89
2023/04/21 02:02:09;;;;;;;14.65;10.15;;;;;;;;;;2055316;28;20129;-88
2023/04/21 02:03:09;;;;;;;14.30;10.30;;;;;;;;;;2063699;28;20081;-89
2023/04/21 02:04:10;;;;;;;13.57;10.32;;;;;;;;;;2056321;28;20455;-88
2023/04/21 02:05:10;;;;;;;;;;;;;;;;;;2056339;28;20061;-87
2023/04/21 02:06:16;;;;;;;13.43;10.23;;;;;;;;;;2039661;28;5000934;-89
2023/04/21 02:07:17;;;;;;;13.57;10.15;;;;;;;;;;1705137;28;5000953;-90
2023/04/21 02:08:17;;;;;;;13.95;10.10;;;;;;;;;;2055567;28;20022;-89
2023/04/21 02:09:17;;;;;;;;;;;;;;;;;;2048305;29;20052;-88
2023/04/21 02:10:18;;;;;;;14.73;10.87;;;;;;;;;;2055730;28;19925;-87
2023/04/21 02:11:18;;;;;;;15.68;10.07;;;;;;;;;;2055482;28;20481;-89
2023/04/21 02:12:19;;;;;;;;;;;;;;;;;;2056365;28;20031;-90
2023/04/21 02:13:19;;;;;;;16.77;11.00;;;;;;;;;;2056525;28;19917;-88
2023/04/21 02:14:19;;;;;;;;;;;;;;;;;;2057795;28;20037;-88
2023/04/21 02:15:20;;;;;;;17.10;11.33;;;;;;;;;;2055708;28;20411;-89
2023/04/21 02:16:25;;;;;;;17.00;11.57;;;;;;;;;;2055797;28;20023;-89
2023/04/21 02:17:25;;;;;;;16.52;11.25;;;;;;;;;;2055527;28;20018;-89
2023/04/21 02:18:28;;;;;;;17.77;11.77;;;;;;;;;;2047551;29;20046;-91
2023/04/21 02:19:29;;;;;;;19.33;11.90;;;;;;;;;;2057829;28;20088;-90
2023/04/21 02:20:29;;;;;;;;;;;;;;;;;;2055675;28;20100;-87
2023/04/21 02:21:31;;;;;;;15.87;11.23;;;;;;;;;;2055145;28;20348;-90
2023/04/21 02:22:31;;;;;;;18.17;11.13;;;;;;;;;;2055205;28;20122;-89
2023/04/21 02:23:32;;;;;;;;;;;;;;;;;;2056046;28;20030;-90
2023/04/21 02:24:34;;;;;;;14.37;10.87;;;;;;;;;;2059357;28;19932;-88
2023/04/21 02:25:35;;;;;;;16.27;11.23;;;;;;;;;;2060127;28;20027;-90
2023/04/21 02:26:35;;;;;;;15.43;10.95;;;;;;;;;;2055634;28;20462;-88
2023/04/21 02:27:36;;;;;;;16.15;11.07;;;;;;;;;;2055749;28;20112;-89
2023/04/21 02:28:36;;;;;;;16.38;11.18;;;;;;;;;;2056152;28;20114;-89
2023/04/21 02:29:36;;;;;;;14.93;11.07;;;;;;;;;;2058018;28;20411;-88
2023/04/21 02:30:37;;;;;;;14.63;10.10;;;;;;;;;;2064820;28;20053;-88
2023/04/21 02:31:37;;;;;;;;;;;;;;;;;;2056725;28;20125;-89
2023/04/21 02:32:38;;;;;;;17.60;10.13;;;;;;;;;;2055782;28;19914;-88
2023/04/21 02:33:38;;;;;;;15.35;10.07;;;;;;;;;;2055588;28;20045;-88
2023/04/21 02:34:40;;;;;;;16.33;11.15;;;;;;;;;;2055835;28;20057;-88
2023/04/21 02:35:41;;;;;;;14.77;10.60;;;;;;;;;;2056279;28;20023;-88
2023/04/21 02:36:44;;;;;;;14.43;9.60;;;;;;;;;;2056032;28;20058;-88
2023/04/21 02:37:44;;;;;;;14.77;10.75;;;;;;;;;;2056331;28;20108;-88
2023/04/21 02:38:44;;;;;;;14.93;10.18;;;;;;;;;;2055450;28;20139;-88
2023/04/21 02:39:45;;;;;;;;;;;;;;;;;;2055870;28;20049;-88
2023/04/21 02:40:45;;;;;;;12.77;9.95;;;;;;;;;;2047681;29;20005;-88
2023/04/21 02:41:45;;;;;;;;;;;;;;;;;;2056114;28;20061;-88
2023/04/21 02:42:46;;;;;;;13.27;10.25;;;;;;;;;;2055350;28;20551;-88
2023/04/21 02:43:47;;;;;;;13.98;10.65;;;;;;;;;;2055090;28;20043;-88
2023/04/21 02:44:47;;;;;;;13.57;10.25;;;;;;;;;;2056504;28;20086;-88
2023/04/21 02:45:48;;;;;;;;;;;;;;;;;;2056000;28;20299;-89
2023/04/21 02:46:48;;;;;;;11.87;9.57;;;;;;;;;;2047295;28;20006;-89
2023/04/21 02:47:48;;;;;;;16.23;10.38;;;;;;;;;;2055203;28;20038;-89
2023/04/21 02:48:49;;;;;;;;;;;;;;;;;;2055253;28;20109;-89
2023/04/21 02:49:49;;;;;;;13.90;10.40;;;;;;;;;;2054817;28;19929;-89
2023/04/21 02:50:51;;;;;;;;;;;;;;;;;;2056129;28;20480;-89
2023/04/21 02:51:54;;;;;;;13.52;10.55;;;;;;;;;;2055467;28;20350;-89
2023/04/21 02:52:54;;;;;;;14.60;10.45;;;;;;;;;;2055062;28;20062;-89
2023/04/21 02:53:55;;;;;;;;;;;;;;;;;;2055379;28;20041;-89
2023/04/21 02:54:56;;;;;;;14.02;9.82;;;;;;;;;;2055697;28;19954;-89
2023/04/21 02:55:57;;;;;;;15.80;11.07;;;;;;;;;;2055867;28;20039;-89
2023/04/21 02:56:58;;;;;;;14.50;9.85;;;;;;;;;;2054889;28;20050;-88
2023/04/21 02:57:58;;;;;;;;;;;;;;;;;;2047122;29;20039;-89
2023/04/21 02:58:59;;;;;;;13.20;10.53;;;;;;;;;;2054687;28;20305;-88
2023/04/21 02:59:59;;;;;;;12.40;8.98;;;;;;;;;;2054174;28;20439;-90
2023/04/21 03:01:00;;;;;;;14.52;10.27;;;;;;;;;;2046533;29;20340;-89
2023/04/21 03:02:02;;;;;;;;;;;;;;;;;;2047556;29;20030;-90
2023/04/21 03:03:03;;;;;;;14.25;10.75;;;;;;;;;;2051332;28;19968;-89
2023/04/21 03:04:03;;;;;;;;;;;;;;;;;;2059016;28;20165;-88
2023/04/21 03:05:05;;;;;;;13.80;10.17;;;;;;;;;;2062157;28;19909;-88
2023/04/21 03:06:05;;;;;;;16.20;10.30;;;;;;;;;;2054481;28;20069;-90
2023/04/21 03:07:11;;;;;;;12.95;9.77;;;;;;;;;;2054438;28;20035;-90
2023/04/21 03:08:11;;;;;;;15.48;10.63;;;;;;;;;;2054543;28;20027;-89
2023/04/21 03:09:12;;;;;;;;;;;;;;;;;;2054829;28;20105;-89
2023/04/21 03:10:12;;;;;;;17.07;10.97;;;;;;;;;;2055385;28;20304;-88
2023/04/21 03:11:12;;;;;;;;;;;;;;;;;;2055581;28;20026;-89
2023/04/21 03:12:13;;;;;;;13.77;10.50;;;;;;;;;;2054251;28;19999;-90
2023/04/21 03:13:13;;;;;;;;;;;;;;;;;;2047054;29;20126;-90
2023/04/21 03:14:14;;;;;;;14.37;10.47;;;;;;;;;;2054547;28;19910;-90
2023/04/21 03:15:14;;;;;;;;;;;;;;;;;;2047097;29;20498;-89
2023/04/21 03:16:14;;;;;;;13.47;10.67;;;;;;;;;;2055012;28;19949;-90
2023/04/21 03:17:15;;;;;;;16.85;10.95;;;;;;;;;;2062483;28;20071;-90
2023/04/21 03:18:15;;;;;;;;;;;;;;;;;;2056122;28;20516;-90
2023/04/21 03:19:16;;;;;;;14.13;11.13;;;;;;;;;;2054729;28;19989;-91
2023/04/21 03:20:16;;;;;;;14.75;11.10;;;;;;;;;;2054682;28;20316;-90
2023/04/21 03:21:17;;;;;;;15.23;11.25;;;;;;;;;;1702993;28;10274829;-90
2023/04/21 03:22:17;;;;;;;15.65;10.77;;;;;;;;;;2057341;28;20130;-91
2023/04/21 03:23:18;;;;;;;16.13;10.65;;;;;;;;;;2059122;28;20030;-91
2023/04/21 03:24:18;;;;;;;16.08;11.75;;;;;;;;;;2055519;28;20019;-90
2023/04/21 03:25:19;;;;;;;12.98;10.93;;;;;;;;;;2055053;28;20044;-90
2023/04/21 03:26:19;;;;;;;14.10;10.55;;;;;;;;;;2054943;28;20023;-89
2023/04/21 03:27:19;;;;;;;15.13;11.63;;;;;;;;;;2055954;28;20023;-88
2023/04/21 03:28:20;;;;;;;16.17;11.65;;;;;;;;;;2055057;28;20081;-90
2023/04/21 03:29:20;;;;;;;14.65;11.00;;;;;;;;;;2055172;28;20030;-89
2023/04/21 03:30:21;;;;;;;;;;;;;;;;;;2056087;28;20035;-89
2023/04/21 03:31:21;;;;;;;16.20;10.97;;;;;;;;;;2055168;28;20408;-90
2023/04/21 03:32:22;;;;;;;;;;;;;;;;;;2055837;28;20030;-90
2023/04/21 03:33:22;;;;;;;14.60;10.52;;;;;;;;;;2055297;28;19949;-90
2023/04/21 03:34:23;;;;;;;16.50;11.93;;;;;;;;;;2055164;28;20461;-90
2023/04/21 03:35:23;;;;;;;13.88;11.05;;;;;;;;;;2055202;28;20026;-89
2023/04/21 03:36:24;;;;;;;13.80;10.73;;;;;;;;;;2055215;28;20034;-90
2023/04/21 03:37:24;;;;;;;15.70;10.80;;;;;;;;;;2055598;28;20027;-89
2023/04/21 03:38:24;;;;;;;;;;;;;;;;;;2056359;28;20106;-91
2023/04/21 03:39:25;;;;;;;14.63;10.53;;;;;;;;;;2055913;28;20381;-91
2023/04/21 03:40:25;;;;;;;;;;;;;;;;;;2059291;28;20073;-91
2023/04/21 03:41:25;;;;;;;13.67;10.10;;;;;;;;;;2055024;28;19945;-91
2023/04/21 03:42:28;;;;;;;13.93;10.40;;;;;;;;;;2055418;28;20046;-91
2023/04/21 03:43:28;;;;;;;13.82;9.77;;;;;;;;;;2055318;28;20138;-91
2023/04/21 03:44:29;;;;;;;;;;;;;;;;;;2055648;28;20511;-89
2023/04/21 03:45:33;;;;;;;12.73;9.30;;;;;;;;;;2046961;29;19910;-89
2023/04/21 03:46:33;;;;;;;13.85;9.93;;;;;;;;;;2055288;28;20034;-91
2023/04/21 03:47:34;;;;;;;;;;;;;;;;;;2063534;28;20421;-89
2023/04/21 03:48:34;;;;;;;13.50;10.13;;;;;;;;;;2055011;28;19910;-89
2023/04/21 03:49:35;;;;;;;13.32;9.90;;;;;;;;;;2055310;28;20113;-91
2023/04/21 03:50:36;;;;;;;;;;;;;;;;;;2061094;28;20031;-89
2023/04/21 03:51:37;;;;;;;12.50;10.05;;;;;;;;;;2062421;28;19953;-90
2023/04/21 03:52:37;;;;;;;13.25;9.73;;;;;;;;;;2073528;28;20027;-90
2023/04/21 03:53:38;;;;;;;13.02;9.60;;;;;;;;;;2065091;28;20030;-90
2023/04/21 03:54:41;;;;;;;;;;;;;;;;;;2065455;28;20027;-91
2023/04/21 03:55:42;;;;;;;13.45;9.38;;;;;;;;;;2061573;28;19918;-91
2023/04/21 03:56:42;;;;;;;;;;;;;;;;;;2056602;28;20130;-90
2023/04/21 03:57:42;;;;;;;13.67;10.07;;;;;;;;;;2055295;28;19925;-89
2023/04/21 03:58:43;;;;;;;13.43;9.55;;;;;;;;;;2055088;28;20042;-92
2023/04/21 03:59:43;;;;;;;14.05;9.77;;;;;;;;;;2055579;28;20193;-91
2023/04/21 04:00:44;;;;;;;12.77;9.45;;;;;;;;;;2054946;28;20026;-90
2023/04/21 04:01:44;;;;;;;12.13;9.48;;;;;;;;;;2047995;29;20102;-90
2023/04/21 04:02:45;;;;;;;12.32;9.63;;;;;;;;;;2055004;28;20578;-91
2023/04/21 04:03:45;;;;;;;;;;;;;;;;;;2055706;28;20038;-90
2023/04/21 04:04:46;;;;;;;13.10;9.37;;;;;;;;;;2047374;28;20389;-90
2023/04/21 04:05:46;;;;;;;;;;;;;;;;;;2047374;29;20074;-89
2023/04/21 04:06:46;;;;;;;11.57;9.20;;;;;;;;;;2047049;29;19911;-90
2023/04/21 04:07:47;;;;;;;11.90;9.02;;;;;;;;;;2054899;28;20540;-90
2023/04/21 04:08:47;;;;;;;12.40;9.18;;;;;;;;;;2059563;28;20039;-89
2023/04/21 04:09:48;;;;;;;;;;;;;;;;;;2065447;28;20026;-88
2023/04/21 04:10:48;;;;;;;11.83;9.30;;;;;;;;;;2065602;28;20069;-89
2023/04/21 04:11:49;;;;;;;12.50;9.57;;;;;;;;;;2064915;28;20031;-90
2023/04/21 04:12:49;;;;;;;;;;;;;;;;;;2063671;28;20018;-88
2023/04/21 04:13:50;;;;;;;11.30;9.07;;;;;;;;;;2059116;28;20321;-89
2023/04/21 04:14:50;;;;;;;;;;;;;;;;;;2050985;29;20058;-90
2023/04/21 04:15:53;;;;;;;14.47;9.43;;;;;;;;;;2061806;28;20004;-90
2023/04/21 04:16:54;;;;;;;12.93;9.23;;;;;;;;;;2059794;28;20030;-89
2023/04/21 04:17:54;;;;;;;;;;;;;;;;;;2055670;28;20023;-88
2023/04/21 04:18:55;;;;;;;14.00;9.83;;;;;;;;;;2063066;28;19913;-90
2023/04/21 04:19:55;;;;;;;;;;;;;;;;;;2063217;28;20504;-88
2023/04/21 04:20:56;;;;;;;12.60;9.93;;;;;;;;;;2054757;28;20434;-89
2023/04/21 04:22:00;;;;;;;16.65;12.02;;;;;;;;;;2054708;28;20031;-89
2023/04/21 04:23:00;;;;;;;14.80;10.45;;;;;;;;;;2055044;28;20030;-90
2023/04/21 04:24:04;;;;;;;;;;;;;;;;;;2047625;29;20027;-89
2023/04/21 04:25:05;;;;;;;14.52;11.52;;;;;;;;;;2055171;28;20309;-89
2023/04/21 04:26:05;;;;;;;;;;;;;;;;;;2055098;28;20037;-90
2023/04/21 04:27:05;;;;;;;13.53;10.83;;;;;;;;;;2054655;28;20009;-90
2023/04/21 04:28:06;;;;;;;17.65;11.65;;;;;;;;;;2054715;28;20054;-89
2023/04/21 04:29:09;;;;;;;16.60;11.73;;;;;;;;;;2054796;28;20027;-89
2023/04/21 04:30:11;;;;;;;14.48;11.10;;;;;;;;;;2054422;28;20145;-87
2023/04/21 04:31:12;;;;;;;18.77;11.57;;;;;;;;;;2046689;28;20031;-88
2023/04/21 04:32:14;;;;;;;18.10;11.63;;;;;;;;;;2054844;28;20050;-91
2023/04/21 04:33:14;;;;;;;14.40;10.93;;;;;;;;;;2057298;28;20061;-88
2023/04/21 04:34:15;;;;;;;16.10;10.57;;;;;;;;;;2062785;28;20102;-91
2023/04/21 04:35:15;;;;;;;12.98;10.85;;;;;;;;;;2063058;28;20026;-91
2023/04/21 04:36:16;;;;;;;14.23;10.27;;;;;;;;;;2062759;28;20339;-90
2023/04/21 04:37:16;;;;;;;17.52;9.82;;;;;;;;;;2062316;28;20545;-90
2023/04/21 04:38:17;;;;;;;13.32;10.35;;;;;;;;;;2065772;28;20037;-90
2023/04/21 04:39:17;;;;;;;14.55;10.00;;;;;;;;;;2067706;28;20022;-89
2023/04/21 04:40:21;;;;;;;12.05;9.73;;;;;;;;;;2066345;28;20089;-89
2023/04/21 04:41:22;;;;;;;12.73;9.77;;;;;;;;;;2062794;28;20022;-88
2023/04/21 04:42:24;;;;;;;12.23;9.70;;;;;;;;;;2063545;28;20527;-90
2023/04/21 04:43:24;;;;;;;14.63;8.80;;;;;;;;;;2062583;28;20058;-92
2023/04/21 04:44:24;;;;;;;13.20;9.02;;;;;;;;;;2055765;28;20015;-91
2023/04/21 04:45:27;;;;;;;11.75;9.77;;;;;;;;;;2054968;28;20090;-89
2023/04/21 04:46:27;;;;;;;12.00;9.48;;;;;;;;;;2063712;28;20046;-91
2023/04/21 04:47:28;;;;;;;11.73;8.73;;;;;;;;;;2062340;28;20030;-90
2023/04/21 04:48:29;;;;;;;11.50;8.55;;;;;;;;;;2062343;28;20220;-90
2023/04/21 04:49:29;;;;;;;9.85;7.90;;;;;;;;;;2062655;28;20022;-88
2023/04/21 04:50:30;;;;;;;10.60;7.97;;;;;;;;;;2062923;28;20488;-89
2023/04/21 04:51:31;;;;;;;11.65;7.65;;;;;;;;;;2062658;28;20470;-89
2023/04/21 04:52:31;;;;;;;10.18;8.60;;;;;;;;;;2062612;28;20038;-89
2023/04/21 04:53:32;;;;;;;10.38;7.80;;;;;;;;;;2062639;28;20289;-89
2023/04/21 04:54:32;;;;;;;11.77;8.45;;;;;;;;;;2062544;28;20054;-89
2023/04/21 04:55:33;;;;;;;10.38;8.65;;;;;;;;;;2063189;28;20190;-88
2023/04/21 04:56:33;;;;;;;9.90;7.82;;;;;;;;;;2064311;28;20057;-89
2023/04/21 04:57:37;;;;;;;11.73;8.18;;;;;;;;;;2064078;28;20104;-89
2023/04/21 04:58:37;;;;;;;10.50;7.43;;;;;;;;;;2064127;28;20053;-90
2023/04/21 04:59:38;;;;;;;9.73;7.20;;;;;;;;;;2062681;28;20136;-90
2023/04/21 05:00:38;;;;;;;9.40;7.25;;;;;;;;;;2053980;28;20386;-91
2023/04/21 05:01:40;;;;;;;9.75;7.43;;;;;;;;;;2061987;28;20058;-90
2023/04/21 05:02:41;;;;;;;9.32;7.60;;;;;;;;;;2062731;28;20074;-91
2023/04/21 05:03:42;;;;;;;9.35;7.05;;;;;;;;;;2062922;28;20442;-90
2023/04/21 05:04:43;;;;;;;7.25;6.47;;;;;;;;;;2062531;28;20120;-90
2023/04/21 05:05:45;;;;;;;7.90;6.70;;;;;;;;;;2062263;28;20492;-90
2023/04/21 05:06:45;;;;;;;8.90;6.97;;;;;;;;;;2061943;28;20042;-90
2023/04/21 05:07:46;;;;;;;9.35;6.82;;;;;;;;;;2064759;28;20052;-89
2023/04/21 05:08:46;;;;;;;8.60;6.55;;;;;;;;;;2069281;28;20033;-90
2023/04/21 05:09:46;;;;;;;7.85;6.85;;;;;;;;;;2057609;28;20109;-89
2023/04/21 05:10:47;;;;;;;7.63;6.78;;;;;;;;;;2062238;28;20033;-89
2023/04/21 05:11:48;;;;;;;8.40;7.15;;;;;;;;;;2062172;28;20018;-89
2023/04/21 05:12:49;;;;;;;7.80;6.97;;;;;;;;;;2061861;28;20050;-90
2023/04/21 05:13:50;;;;;;;8.95;7.85;;;;;;;;;;2062144;28;20042;-89
2023/04/21 05:14:50;;;;;;;9.30;7.63;;;;;;;;;;2061940;28;20585;-90
2023/04/21 05:15:59;;;;;;;9.30;8.13;;;;;;;;;;2054089;28;20034;-89
2023/04/21 05:17:00;;;;;;;8.50;7.55;;;;;;;;;;2055888;28;20121;-90
2023/04/21 05:18:00;;;;;;;11.05;7.78;;;;;;;;;;2055546;28;20057;-91
2023/04/21 05:19:01;;;;;;;9.23;7.85;;;;;;;;;;2053809;28;20041;-90
2023/04/21 05:20:06;;;;;;;10.23;7.93;;;;;;;;;;2062208;28;20128;-90
2023/04/21 05:21:07;;;;;;;11.73;7.95;;;;;;;;;;2062529;28;20092;-90
2023/04/21 05:22:07;;;;;;;10.93;8.32;;;;;;;;;;2062622;28;20112;-90
2023/04/21 05:23:08;;;;;;;13.02;8.30;;;;;;;;;;2062073;28;20551;-90
2023/04/21 05:24:10;;;;;;;12.20;8.80;;;;;;;;;;2054920;28;20461;-91
2023/04/21 05:25:14;;;;;;;10.98;8.98;;;;;;;;;;2062776;28;20263;-88
2023/04/21 05:26:15;;;;;;;11.77;8.05;;;;;;;;;;2062055;28;20045;-89
2023/04/21 05:27:21;;;;;;;10.90;7.20;;;;;;;;;;877992;28;10021849;-89
2023/04/21 05:28:22;;;;;;;13.75;9.02;;;;;;;;;;2062659;28;20758;-90
2023/04/21 05:29:22;;;;;;;11.63;8.18;;;;;;;;;;2072306;28;20022;-90
2023/04/21 05:30:27;;;;;;;9.95;8.68;;;;;;;;;;2064361;28;20023;-91
2023/04/21 05:31:28;;;;;;;10.55;7.90;;;;;;;;;;2064284;28;20507;-89
2023/04/21 05:32:28;;;;;;;10.75;8.50;;;;;;;;;;2064853;28;20057;-90
2023/04/21 05:33:30;;;;;;;11.80;8.15;;;;;;;;;;2065348;28;20022;-90
2023/04/21 05:34:31;;;;;;;8.40;7.50;;;;;;;;;;2064940;28;20113;-89
2023/04/21 05:35:32;;;;;;;10.60;8.43;;;;;;;;;;2065089;28;20046;-90
2023/04/21 05:36:32;;;;;;;12.48;9.23;;;;;;;;;;2064743;28;20026;-88
2023/04/21 05:37:33;;;;;;;12.45;8.32;;;;;;;;;;2064542;28;20037;-88
2023/04/21 05:38:33;;;;;;;10.80;8.18;;;;;;;;;;2064783;28;20045;-89
2023/04/21 05:39:34;;;;;;;14.02;10.13;;;;;;;;;;2065223;28;20092;-89
2023/04/21 05:40:34;;;;;;;13.68;9.35;;;;;;;;;;2064180;28;20431;-89
2023/04/21 05:41:34;;;;;;;11.85;8.48;;;;;;;;;;2064232;28;20040;-88
2023/04/21 05:42:35;;;;;;;11.20;8.70;;;;;;;;;;2064056;28;20037;-90
2023/04/21 05:43:35;;;;;;;13.82;8.52;;;;;;;;;;2055990;28;20185;-89
2023/04/21 05:44:36;;;;;;;10.82;8.25;;;;;;;;;;2064108;28;20034;-88
2023/04/21 05:45:40;;;;;;;9.05;8.07;;;;;;;;;;2056319;28;20505;-90
2023/04/21 05:46:40;;;;;;;10.13;8.45;;;;;;;;;;2064211;28;20034;-90
2023/04/21 05:47:40;;;;;;;9.52;8.23;;;;;;;;;;2072182;28;20036;-88
2023/04/21 05:48:41;;;;;;;9.38;7.55;;;;;;;;;;2063983;28;20022;-90
2023/04/21 05:49:48;;;;;;;9.60;7.60;;;;;;;;;;2063941;28;20036;-90
2023/04/21 05:50:49;;;;;;;8.48;6.97;;;;;;;;;;2068248;28;20030;-90
2023/04/21 05:51:49;;;;;;;8.75;7.72;;;;;;;;;;2060314;28;20062;-91
2023/04/21 05:53:15;;;;;;;7.45;6.53;;;;;;;;;;2064636;28;20026;-90
2023/04/21 05:54:24;;;;;;;9.40;7.50;;;;;;;;;;2063358;28;20042;-91
2023/04/21 05:55:25;;;;;;;8.40;6.70;;;;;;;;;;2056474;28;20505;-89
2023/04/21 05:56:28;;;;;;;7.70;5.95;;;;;;;;;;2063361;28;20124;-90
2023/04/21 05:57:43;;;;;;;8.55;6.53;;;;;;;;;;2064104;28;20053;-90
2023/04/21 05:58:50;;;;;;;9.75;6.75;;;;;;;;;;2064103;28;20049;-90
2023/04/21 05:59:51;;;;;;;11.23;6.75;;;;;;;;;;2063692;28;20092;-90
2023/04/21 06:00:51;;;;;;;11.57;8.10;;;;;;;;;;2058286;28;20090;-88
2023/04/21 06:01:52;;;;;;;11.18;7.00;;;;;;;;;;2062011;28;20034;-90
2023/04/21 06:02:52;;;;;;;7.07;6.05;;;;;;;;;;2055533;28;20027;-91
2023/04/21 06:03:58;;;;;;;8.65;5.50;;;;;;;;;;2063540;28;20030;-90
2023/04/21 06:05:02;;;;;;;6.93;5.75;;;;;;;;;;2064144;28;20038;-90
2023/04/21 06:06:03;;;;;;;7.07;6.05;;;;;;;;;;2071726;28;20041;-91
2023/04/21 06:07:06;;;;;;;9.40;5.93;;;;;;;;;;2071530;28;20026;-91